Time;durP1;ratioP1;P1;durP2;ratioP2;P2;SDS_P1;SDS_P2;PMS_P1;PMS_P2;Temp;Humidity;BMP_temperature;BMP_pressure;BME280_temperature;BME280_humidity;BME280_pressure;Samples;Min_cycle;Max_cycle;Signal;HPM_P1;HPM_P2
2023/07/09 00:01:05;;;;;;;;;;;22.20;99.90;;;;;;5132983;27;19964;-41
2023/07/09 00:03:30;;;;;;;;;;;22.20;99.90;;;;;;5143981;27;20377;-42
2023/07/09 00:05:56;;;;;;;;;;;22.10;99.90;;;;;;5134707;27;20259;-43
2023/07/09 00:08:26;;;;;;;;;;;22.20;99.90;;;;;;5140439;27;19912;-42
2023/07/09 00:10:52;;;;;;;;;;;22.10;99.90;;;;;;5141938;27;19925;-41
2023/07/09 00:13:17;;;;;;;;;;;22.10;99.90;;;;;;5133493;27;19912;-42
2023/07/09 00:15:43;;;;;;;;;;;22.10;99.90;;;;;;5149428;27;20118;-43
2023/07/09 00:18:09;;;;;;;;;;;22.00;99.90;;;;;;5133651;28;19907;-43
2023/07/09 00:20:35;;;;;;;;;;;22.00;99.90;;;;;;5133480;27;19960;-43
2023/07/09 00:23:00;;;;;;;;;;;21.90;99.90;;;;;;5150889;27;20018;-42
2023/07/09 00:25:25;;;;;;;;;;;21.90;99.90;;;;;;5140261;27;19955;-42
2023/07/09 00:27:51;;;;;;;;;;;21.90;99.90;;;;;;5133473;27;19944;-42
2023/07/09 00:30:21;;;;;;;;;;;21.90;99.90;;;;;;5134418;27;19963;-43
2023/07/09 00:32:47;;;;;;;;;;;21.90;99.90;;;;;;5141883;27;20270;-42
2023/07/09 00:35:15;;;;;;;;;;;21.80;99.90;;;;;;5144833;27;19907;-42
2023/07/09 00:37:41;;;;;;;;;;;21.90;99.90;;;;;;5137465;27;19914;-43
2023/07/09 00:40:10;;;;;;;;;;;21.90;99.90;;;;;;5137153;27;19919;-42
2023/07/09 00:42:35;;;;;;;;;;;21.90;99.90;;;;;;5136591;27;19926;-43
2023/07/09 00:45:01;;;;;;;;;;;22.00;99.90;;;;;;5137408;27;19907;-42
2023/07/09 00:47:41;;;;;;;;;;;21.90;99.90;;;;;;5137103;27;19934;-42
2023/07/09 00:50:10;;;;;;;;;;;21.90;99.90;;;;;;5136481;27;19908;-42
2023/07/09 00:52:38;;;;;;;;;;;21.90;99.90;;;;;;5137143;27;19950;-42
2023/07/09 00:55:07;;;;;;;;;;;21.90;99.90;;;;;;5137250;27;19961;-42
2023/07/09 00:57:33;;;;;;;;;;;21.90;99.90;;;;;;5136583;27;19918;-42
2023/07/09 01:00:09;;;;;;;;;;;22.00;99.90;;;;;;5137045;27;19914;-42
2023/07/09 01:02:35;;;;;;;;;;;21.90;99.90;;;;;;5137099;27;19922;-42
2023/07/09 01:05:01;;;;;;;;;;;21.90;99.90;;;;;;5136179;27;20020;-44
2023/07/09 01:07:30;;;;;;;;;;;21.80;99.90;;;;;;5136882;27;20273;-42
2023/07/09 01:09:56;;;;;;;;;;;21.80;99.90;;;;;;5136893;27;20255;-42
2023/07/09 01:12:22;;;;;;;;;;;21.80;99.90;;;;;;5136068;27;19918;-42
2023/07/09 01:14:51;;;;;;;;;;;21.80;99.90;;;;;;5136713;27;19908;-42
2023/07/09 01:17:17;;;;;;;;;;;21.70;99.90;;;;;;5136602;27;19907;-43
2023/07/09 01:19:43;;;;;;;;;;;21.70;99.90;;;;;;5135937;27;19914;-43
2023/07/09 01:22:11;;;;;;;;;;;21.70;99.90;;;;;;5136566;27;19915;-42
2023/07/09 01:24:53;;;;;;;;;;;21.70;99.90;;;;;;5135865;27;19946;-42
2023/07/09 01:27:21;;;;;;;;;;;21.60;99.90;;;;;;5136365;27;19908;-41
2023/07/09 01:29:48;;;;;;;;;;;21.60;99.90;;;;;;5136420;27;20357;-42
2023/07/09 01:32:21;;;;;;;;;;;21.50;99.90;;;;;;5135627;27;20353;-42
2023/07/09 01:34:48;;;;;;;;;;;21.50;99.90;;;;;;5128017;27;19911;-43
2023/07/09 01:37:15;;;;;;;;;;;21.50;99.90;;;;;;5136117;27;19907;-42
2023/07/09 01:39:40;;;;;;;;;;;21.40;99.90;;;;;;5135131;27;19955;-43
2023/07/09 01:42:08;;;;;;;;;;;21.40;99.90;;;;;;5135142;27;20023;-42
2023/07/09 01:44:35;;;;;;;;;;;21.40;99.90;;;;;;5136333;27;19911;-42
2023/07/09 01:47:03;;;;;;;;;;;21.40;99.90;;;;;;5142363;27;19919;-42
2023/07/09 01:49:31;;;;;;;;;;;21.40;99.90;;;;;;5145196;27;19919;-42
2023/07/09 01:51:57;;;;;;;;;;;21.40;99.90;;;;;;5135952;27;19911;-43
2023/07/09 01:54:23;;;;;;;;;;;21.40;99.90;;;;;;5151998;27;19991;-42
2023/07/09 01:56:49;;;;;;;;;;;21.40;99.90;;;;;;5139156;27;19952;-43
2023/07/09 01:59:14;;;;;;;;;;;21.30;99.90;;;;;;5135993;27;19907;-43
2023/07/09 02:01:41;;;;;;;;;;;21.30;99.90;;;;;;5134941;27;20362;-42
2023/07/09 02:04:07;;;;;;;;;;;21.30;99.90;;;;;;5135837;27;20009;-42
2023/07/09 02:06:32;;;;;;;;;;;21.30;99.90;;;;;;5135639;27;19962;-42
2023/07/09 02:08:58;;;;;;;;;;;21.30;99.90;;;;;;5134869;27;20013;-42
2023/07/09 02:11:24;;;;;;;;;;;21.20;99.90;;;;;;5135700;27;19914;-42
2023/07/09 02:13:50;;;;;;;;;;;21.20;99.90;;;;;;5134872;27;19960;-42
2023/07/09 02:16:15;;;;;;;;;;;21.20;99.90;;;;;;5135582;27;19915;-43
2023/07/09 02:18:40;;;;;;;;;;;21.20;99.90;;;;;;5135531;27;19954;-42
2023/07/09 02:21:06;;;;;;;;;;;21.20;99.90;;;;;;5134786;27;19919;-44
2023/07/09 02:23:31;;;;;;;;;;;21.20;99.90;;;;;;5135383;27;19918;-42
2023/07/09 02:25:57;;;;;;;;;;;21.20;99.90;;;;;;5135408;27;19908;-42
2023/07/09 02:28:22;;;;;;;;;;;21.20;99.90;;;;;;5134481;27;19935;-43
2023/07/09 02:30:48;;;;;;;;;;;21.20;99.90;;;;;;5135428;27;19914;-42
2023/07/09 02:33:13;;;;;;;;;;;21.20;99.90;;;;;;5135245;27;19943;-42
2023/07/09 02:35:39;;;;;;;;;;;21.20;99.90;;;;;;5134393;27;19908;-42
2023/07/09 02:38:04;;;;;;;;;;;21.20;99.90;;;;;;5135085;27;19908;-42
2023/07/09 02:40:30;;;;;;;;;;;21.10;99.90;;;;;;5134796;27;19926;-42
2023/07/09 02:42:55;;;;;;;;;;;21.10;99.90;;;;;;5134234;27;19919;-42
2023/07/09 02:45:21;;;;;;;;;;;21.10;99.90;;;;;;5134936;27;19939;-42
2023/07/09 02:47:47;;;;;;;;;;;21.10;99.90;;;;;;5135054;27;20274;-42
2023/07/09 02:50:12;;;;;;;;;;;21.10;99.90;;;;;;5134042;27;19908;-42
2023/07/09 02:52:38;;;;;;;;;;;21.10;99.90;;;;;;5134652;27;19907;-43
2023/07/09 02:55:04;;;;;;;;;;;21.10;99.90;;;;;;5134782;27;20317;-42
2023/07/09 02:57:29;;;;;;;;;;;21.00;99.90;;;;;;5133906;27;19907;-43
2023/07/09 02:59:55;;;;;;;;;;;21.00;99.90;;;;;;5134759;27;19914;-42
2023/07/09 03:02:20;;;;;;;;;;;21.00;99.90;;;;;;5134461;27;20298;-42
2023/07/09 03:04:46;;;;;;;;;;;21.00;99.90;;;;;;5133967;27;19914;-42
2023/07/09 03:07:11;;;;;;;;;;;20.90;99.90;;;;;;5134387;27;19907;-43
2023/07/09 03:09:37;;;;;;;;;;;21.00;99.90;;;;;;5134550;27;19976;-43
2023/07/09 03:12:02;;;;;;;;;;;20.90;99.90;;;;;;5133795;27;19915;-43
2023/07/09 03:14:28;;;;;;;;;;;20.90;99.90;;;;;;5134385;27;19912;-42
2023/07/09 03:16:54;;;;;;;;;;;20.90;99.90;;;;;;5134489;27;19923;-41
2023/07/09 03:19:20;;;;;;;;;;;20.80;99.90;;;;;;5133508;27;20389;-42
2023/07/09 03:21:45;;;;;;;;;;;20.80;99.90;;;;;;5134173;27;19970;-43
2023/07/09 03:24:11;;;;;;;;;;;20.80;99.90;;;;;;5133510;27;20331;-42
2023/07/09 03:26:36;;;;;;;;;;;20.80;99.90;;;;;;5134232;27;19911;-42
2023/07/09 03:29:02;;;;;;;;;;;20.70;99.90;;;;;;5134182;27;19952;-43
2023/07/09 03:31:27;;;;;;;;;;;20.70;99.90;;;;;;5133352;27;20014;-44
2023/07/09 03:33:53;;;;;;;;;;;20.60;99.90;;;;;;5134163;27;19912;-42
2023/07/09 03:36:19;;;;;;;;;;;20.50;99.90;;;;;;5133868;27;19914;-42
2023/07/09 03:38:45;;;;;;;;;;;20.40;99.90;;;;;;5133131;27;19911;-42
2023/07/09 03:41:11;;;;;;;;;;;20.40;99.90;;;;;;5133991;27;19922;-42
2023/07/09 03:43:36;;;;;;;;;;;20.40;99.90;;;;;;5133895;27;19908;-42
2023/07/09 03:46:02;;;;;;;;;;;20.40;99.90;;;;;;5133148;27;20365;-43
2023/07/09 03:48:28;;;;;;;;;;;20.40;99.90;;;;;;5133820;27;20030;-42
2023/07/09 03:50:53;;;;;;;;;;;20.40;99.90;;;;;;5133758;27;19907;-43
2023/07/09 03:53:18;;;;;;;;;;;20.40;99.90;;;;;;5132908;27;19907;-42
2023/07/09 03:55:51;;;;;;;;;;;20.40;99.90;;;;;;5133866;27;19988;-43
2023/07/09 03:58:16;;;;;;;;;;;20.40;99.90;;;;;;5133709;27;20358;-42
2023/07/09 04:00:42;;;;;;;;;;;20.40;99.90;;;;;;5138545;27;19927;-42
2023/07/09 04:03:08;;;;;;;;;;;20.50;99.90;;;;;;5138883;27;19945;-42
2023/07/09 04:05:33;;;;;;;;;;;20.50;99.90;;;;;;5142430;27;19918;-43
2023/07/09 04:07:59;;;;;;;;;;;20.50;99.90;;;;;;5135890;27;19908;-42
2023/07/09 04:10:25;;;;;;;;;;;20.60;99.90;;;;;;5133456;28;19907;-42
2023/07/09 04:12:50;;;;;;;;;;;20.60;99.90;;;;;;5133705;28;20362;-42
2023/07/09 04:15:16;;;;;;;;;;;20.60;99.90;;;;;;5132664;28;19914;-41
2023/07/09 04:17:41;;;;;;;;;;;20.60;99.90;;;;;;5133752;28;19908;-41
2023/07/09 04:20:09;;;;;;;;;;;20.70;99.90;;;;;;5133478;28;19908;-42
2023/07/09 04:22:35;;;;;;;;;;;20.70;99.90;;;;;;5132478;28;19960;-42
2023/07/09 04:25:02;;;;;;;;;;;20.70;99.90;;;;;;5133580;28;19907;-41
2023/07/09 04:27:27;;;;;;;;;;;20.80;99.90;;;;;;5132686;28;20549;-42
2023/07/09 04:29:53;;;;;;;;;;;20.80;99.90;;;;;;5133687;28;19908;-43
2023/07/09 04:32:19;;;;;;;;;;;20.80;99.90;;;;;;5133375;28;20362;-42
2023/07/09 04:34:45;;;;;;;;;;;20.90;99.90;;;;;;5132610;28;19969;-44
2023/07/09 04:37:11;;;;;;;;;;;20.90;99.90;;;;;;5133350;28;19911;-42
2023/07/09 04:39:37;;;;;;;;;;;20.90;99.90;;;;;;5133040;28;20425;-42
2023/07/09 04:42:03;;;;;;;;;;;21.00;99.90;;;;;;5132491;28;20061;-42
2023/07/09 04:44:28;;;;;;;;;;;21.00;99.90;;;;;;5133318;28;20036;-42
2023/07/09 04:46:54;;;;;;;;;;;21.00;99.90;;;;;;5133357;28;20251;-42
2023/07/09 04:49:19;;;;;;;;;;;21.00;99.90;;;;;;5132428;28;20372;-42
2023/07/09 04:51:45;;;;;;;;;;;21.10;99.90;;;;;;5133307;28;19930;-42
2023/07/09 04:54:10;;;;;;;;;;;21.10;99.90;;;;;;5133307;28;20036;-42
2023/07/09 04:56:37;;;;;;;;;;;21.10;99.90;;;;;;5132413;28;20442;-42
2023/07/09 04:59:03;;;;;;;;;;;21.20;99.90;;;;;;5133149;28;19914;-42
2023/07/09 05:01:28;;;;;;;;;;;21.20;99.90;;;;;;5133138;28;20006;-42
2023/07/09 05:03:54;;;;;;;;;;;21.30;99.90;;;;;;5132613;28;19929;-44
2023/07/09 05:06:20;;;;;;;;;;;21.40;99.90;;;;;;5133195;28;19912;-42
2023/07/09 05:08:48;;;;;;;;;;;21.40;99.90;;;;;;5133258;28;19915;-43
2023/07/09 05:11:14;;;;;;;;;;;21.50;99.90;;;;;;5132103;28;19911;-42
2023/07/09 05:13:39;;;;;;;;;;;21.60;99.90;;;;;;5132909;28;20353;-42
2023/07/09 05:16:05;;;;;;;;;;;21.60;99.90;;;;;;5133088;27;20001;-42
2023/07/09 05:18:30;;;;;;;;;;;21.70;99.90;;;;;;5135650;27;19994;-42
2023/07/09 05:20:56;;;;;;;;;;;21.80;99.90;;;;;;5136653;27;19908;-43
2023/07/09 05:23:24;;;;;;;;;;;21.80;99.90;;;;;;5136617;27;19926;-42
2023/07/09 05:25:50;;;;;;;;;;;21.90;99.90;;;;;;5135924;27;19933;-42
2023/07/09 05:28:15;;;;;;;;;;;22.00;99.90;;;;;;5136506;27;19908;-43
2023/07/09 05:30:41;;;;;;;;;;;22.10;99.90;;;;;;5135616;27;19998;-43
2023/07/09 05:33:07;;;;;;;;;;;22.20;99.90;;;;;;5136474;27;20380;-42
2023/07/09 05:35:32;;;;;;;;;;;22.20;99.90;;;;;;5136315;27;19907;-42
2023/07/09 05:37:57;;;;;;;;;;;22.30;99.90;;;;;;5134917;27;19916;-43
2023/07/09 05:40:23;;;;;;;;;;;22.30;99.90;;;;;;5118432;27;19927;-44
2023/07/09 05:42:48;;;;;;;;;;;22.30;99.90;;;;;;5128169;27;19923;-42
2023/07/09 05:45:14;;;;;;;;;;;22.40;99.90;;;;;;5134650;27;19968;-44
2023/07/09 05:47:40;;;;;;;;;;;22.40;99.90;;;;;;5135428;27;19962;-42
2023/07/09 05:50:06;;;;;;;;;;;22.40;99.90;;;;;;5135516;27;19907;-42
2023/07/09 05:52:31;;;;;;;;;;;22.40;99.90;;;;;;5134528;27;20385;-42
2023/07/09 05:54:59;;;;;;;;;;;22.50;99.90;;;;;;5135437;27;19918;-42
2023/07/09 05:57:24;;;;;;;;;;;22.50;99.90;;;;;;5132720;27;19908;-42
2023/07/09 05:59:50;;;;;;;;;;;22.50;99.90;;;;;;5134461;27;19914;-42
2023/07/09 06:02:16;;;;;;;;;;;22.50;99.90;;;;;;5135024;27;19930;-41
2023/07/09 06:04:42;;;;;;;;;;;22.60;99.90;;;;;;5135117;27;19908;-42
2023/07/09 06:07:11;;;;;;;;;;;22.60;99.90;;;;;;5134490;27;19952;-43
2023/07/09 06:09:36;;;;;;;;;;;22.60;99.90;;;;;;5135478;27;20364;-43
2023/07/09 06:12:03;;;;;;;;;;;22.70;99.90;;;;;;5135053;27;19947;-43
2023/07/09 06:14:28;;;;;;;;;;;22.70;99.90;;;;;;5134130;27;19955;-42
2023/07/09 06:16:54;;;;;;;;;;;22.70;99.90;;;;;;5135006;27;19990;-43
2023/07/09 06:19:19;;;;;;;;;;;22.70;99.90;;;;;;5134882;27;19915;-42
2023/07/09 06:21:45;;;;;;;;;;;22.80;99.90;;;;;;5134090;27;20392;-42
2023/07/09 06:24:10;;;;;;;;;;;22.80;99.90;;;;;;5134918;27;19907;-43
2023/07/09 06:26:36;;;;;;;;;;;22.80;99.90;;;;;;5135002;27;19914;-42
2023/07/09 06:29:02;;;;;;;;;;;22.80;99.90;;;;;;5133510;27;20024;-42
2023/07/09 06:31:27;;;;;;;;;;;22.90;99.90;;;;;;5134722;27;19911;-42
2023/07/09 06:33:53;;;;;;;;;;;22.90;99.90;;;;;;5134709;27;19934;-42
2023/07/09 06:36:19;;;;;;;;;;;22.90;99.90;;;;;;5133991;27;19907;-43
2023/07/09 06:38:45;;;;;;;;;;;23.00;99.90;;;;;;5134404;27;19912;-44
2023/07/09 06:41:10;;;;;;;;;;;23.00;99.90;;;;;;5133717;27;19914;-43
2023/07/09 06:43:38;;;;;;;;;;;23.20;99.90;;;;;;5134492;27;19907;-42
2023/07/09 06:46:05;;;;;;;;;;;23.20;99.90;;;;;;5131654;27;19911;-43
2023/07/09 06:48:30;;;;;;;;;;;23.30;99.90;;;;;;5133506;27;20373;-42
2023/07/09 06:50:56;;;;;;;;;;;23.40;99.90;;;;;;5134810;27;19907;-42
2023/07/09 06:53:22;;;;;;;;;;;23.50;99.90;;;;;;5134740;27;20354;-42
2023/07/09 06:55:54;;;;;;;;;;;23.60;99.90;;;;;;5134050;27;19960;-44
2023/07/09 06:58:21;;;;;;;;;;;23.60;99.90;;;;;;5134649;27;19912;-42
2023/07/09 07:00:48;;;;;;;;;;;23.70;99.90;;;;;;5134620;27;19907;-42
2023/07/09 07:03:14;;;;;;;;;;;23.80;99.90;;;;;;5133858;27;19920;-42
2023/07/09 07:05:43;;;;;;;;;;;23.80;99.90;;;;;;5134726;27;19915;-43
2023/07/09 07:08:08;;;;;;;;;;;23.90;99.90;;;;;;5125461;27;19918;-42
2023/07/09 07:10:34;;;;;;;;;;;23.90;99.90;;;;;;5117954;27;20346;-42
2023/07/09 07:12:59;;;;;;;;;;;24.00;99.90;;;;;;5113875;28;19912;-42
2023/07/09 07:15:25;;;;;;;;;;;24.00;99.90;;;;;;5125444;27;20022;-43
2023/07/09 07:17:50;;;;;;;;;;;24.10;99.90;;;;;;5116337;27;19912;-42
2023/07/09 07:20:17;;;;;;;;;;;24.20;99.90;;;;;;5119470;27;19915;-42
2023/07/09 07:22:42;;;;;;;;;;;24.30;99.90;;;;;;5123438;27;19972;-44
2023/07/09 07:25:08;;;;;;;;;;;24.50;99.90;;;;;;5132750;27;19911;-42
2023/07/09 07:27:33;;;;;;;;;;;24.50;99.90;;;;;;5136489;27;19911;-43
2023/07/09 07:29:59;;;;;;;;;;;24.60;99.90;;;;;;5132228;27;19937;-43
2023/07/09 07:32:24;;;;;;;;;;;24.70;99.90;;;;;;5137685;27;20282;-42
2023/07/09 07:34:50;;;;;;;;;;;24.80;99.90;;;;;;5143579;27;19986;-42
2023/07/09 07:37:19;;;;;;;;;;;24.80;99.90;;;;;;5137926;27;19994;-42
2023/07/09 07:39:45;;;;;;;;;;;24.80;99.90;;;;;;5135356;27;20290;-43
2023/07/09 07:42:10;;;;;;;;;;;24.90;99.90;;;;;;5133092;27;19915;-42
2023/07/09 07:44:36;;;;;;;;;;;25.00;99.90;;;;;;5136819;27;19919;-42
2023/07/09 07:47:01;;;;;;;;;;;25.10;99.90;;;;;;5142648;27;19958;-42
2023/07/09 07:49:27;;;;;;;;;;;25.20;99.90;;;;;;5137607;27;19908;-42
2023/07/09 07:51:52;;;;;;;;;;;25.30;99.90;;;;;;5128748;27;19919;-43
2023/07/09 07:54:18;;;;;;;;;;;25.30;99.90;;;;;;5137202;27;19953;-42
2023/07/09 07:56:44;;;;;;;;;;;25.40;99.90;;;;;;5130886;27;20312;-43
2023/07/09 07:59:09;;;;;;;;;;;25.50;99.90;;;;;;5119147;27;19916;-42
2023/07/09 08:01:35;;;;;;;;;;;25.60;99.90;;;;;;5123763;27;20014;-43
2023/07/09 08:04:02;;;;;;;;;;;25.70;99.90;;;;;;5130536;27;19933;-43
2023/07/09 08:06:27;;;;;;;;;;;25.80;99.90;;;;;;5134536;27;20288;-44
2023/07/09 08:08:53;;;;;;;;;;;25.90;99.90;;;;;;5141426;27;19998;-42
2023/07/09 08:11:18;;;;;;;;;;;26.00;99.90;;;;;;5132748;28;19918;-42
2023/07/09 08:13:44;;;;;;;;;;;26.20;99.90;;;;;;5132252;28;19908;-44
2023/07/09 08:16:11;;;;;;;;;;;26.30;99.90;;;;;;5132912;28;19908;-42
2023/07/09 08:18:37;;;;;;;;;;;26.40;99.90;;;;;;5132867;28;19913;-44
2023/07/09 08:21:03;;;;;;;;;;;26.50;99.90;;;;;;5132091;28;19907;-42
2023/07/09 08:23:28;;;;;;;;;;;26.60;99.90;;;;;;5132771;28;19915;-43
2023/07/09 08:25:55;;;;;;;;;;;26.70;99.90;;;;;;5132662;28;20336;-42
2023/07/09 08:28:20;;;;;;;;;;;26.80;99.90;;;;;;5132378;28;20002;-42
2023/07/09 08:30:46;;;;;;;;;;;26.90;99.90;;;;;;5126890;27;20359;-42
2023/07/09 08:33:11;;;;;;;;;;;27.10;99.90;;;;;;5126292;27;20000;-42
2023/07/09 08:35:37;;;;;;;;;;;27.10;99.90;;;;;;5124048;28;20278;-42
2023/07/09 08:38:02;;;;;;;;;;;27.20;99.90;;;;;;5125296;28;19919;-42
2023/07/09 08:40:28;;;;;;;;;;;27.30;99.90;;;;;;5124434;27;19950;-43
2023/07/09 08:42:57;;;;;;;;;;;27.40;99.90;;;;;;5122727;27;19926;-45
2023/07/09 08:45:29;;;;;;;;;;;27.50;99.90;;;;;;5118919;28;19947;-43
2023/07/09 08:48:05;;;;;;;;;;;27.50;99.90;;;;;;5140608;27;20352;-43
2023/07/09 08:50:42;;;;;;;;;;;27.60;99.90;;;;;;5127592;27;19911;-42
2023/07/09 08:53:33;;;;;;;;;;;27.70;99.90;;;;;;5136779;27;19914;-42
2023/07/09 08:55:59;;;;;;;;;;;27.80;99.90;;;;;;5096318;27;20273;-42
2023/07/09 08:58:28;;;;;;;;;;;27.90;99.90;;;;;;5134784;27;20038;-42
2023/07/09 09:00:59;;;;;;;;;;;28.00;99.90;;;;;;5128509;27;19908;-42
2023/07/09 09:03:30;;;;;;;;;;;28.10;99.90;;;;;;5137550;27;19965;-43
2023/07/09 09:05:56;;;;;;;;;;;28.20;99.90;;;;;;5129620;27;20403;-42
2023/07/09 09:08:30;;;;;;;;;;;28.20;99.90;;;;;;5132768;27;19911;-43
2023/07/09 09:11:21;;;;;;;;;;;28.30;99.90;;;;;;5136174;27;19973;-42
2023/07/09 09:13:47;;;;;;;;;;;28.40;99.90;;;;;;5136874;27;19946;-41
2023/07/09 09:16:21;;;;;;;;;;;28.40;99.90;;;;;;5135067;27;19911;-43
2023/07/09 09:18:47;;;;;;;;;;;28.50;99.90;;;;;;5137003;27;19907;-42
2023/07/09 09:21:24;;;;;;;;;;;28.60;99.90;;;;;;5130378;27;19919;-42
2023/07/09 09:23:55;;;;;;;;;;;28.60;99.90;;;;;;5131290;27;19911;-43
2023/07/09 09:26:23;;;;;;;;;;;28.70;99.90;;;;;;5116031;28;19935;-43
2023/07/09 09:28:49;;;;;;;;;;;28.80;99.90;;;;;;5116164;28;19912;-44
2023/07/09 09:31:15;;;;;;;;;;;28.80;99.90;;;;;;5119036;27;19926;-42
2023/07/09 09:33:42;;;;;;;;;;;29.00;99.90;;;;;;5129836;27;19994;-42
2023/07/09 09:36:14;;;;;;;;;;;29.10;99.90;;;;;;5127297;27;20060;-42
2023/07/09 09:38:40;;;;;;;;;;;29.10;99.90;;;;;;5129207;27;20341;-42
2023/07/09 09:41:10;;;;;;;;;;;29.10;99.90;;;;;;5127476;27;19976;-42
2023/07/09 09:43:35;;;;;;;;;;;29.20;99.70;;;;;;5117888;27;20311;-42
2023/07/09 09:46:05;;;;;;;;;;;29.40;99.90;;;;;;5124528;27;19960;-43
2023/07/09 09:48:31;;;;;;;;;;;29.40;99.70;;;;;;5121719;27;20425;-43
2023/07/09 09:51:01;;;;;;;;;;;29.40;98.30;;;;;;5131629;27;19947;-42
2023/07/09 09:53:27;;;;;;;;;;;29.50;99.90;;;;;;5122575;27;19912;-44
2023/07/09 09:55:54;;;;;;;;;;;29.60;97.10;;;;;;5118708;27;19966;-42
2023/07/09 09:58:20;;;;;;;;;;;29.70;96.90;;;;;;5116903;27;19942;-42
2023/07/09 10:00:51;;;;;;;;;;;29.80;96.60;;;;;;5134780;27;19922;-42
2023/07/09 10:03:17;;;;;;;;;;;29.90;97.70;;;;;;5134029;27;19976;-42
2023/07/09 10:05:56;;;;;;;;;;;30.00;95.80;;;;;;5133781;27;20334;-42
2023/07/09 10:08:33;;;;;;;;;;;30.10;97.60;;;;;;5135638;27;19922;-42
2023/07/09 10:11:08;;;;;;;;;;;30.10;95.90;;;;;;5117422;27;19918;-43
2023/07/09 10:13:36;;;;;;;;;;;30.20;96.20;;;;;;5112671;28;19908;-42
2023/07/09 10:16:11;;;;;;;;;;;30.30;96.50;;;;;;5130644;27;19919;-42
2023/07/09 10:18:40;;;;;;;;;;;30.40;96.10;;;;;;5129972;27;20002;-43
2023/07/09 10:21:08;;;;;;;;;;;30.50;96.30;;;;;;5119088;27;19950;-41
2023/07/09 10:23:43;;;;;;;;;;;30.50;96.50;;;;;;5113200;28;19962;-42
2023/07/09 10:26:35;;;;;;;;;;;30.60;97.30;;;;;;5130253;27;19915;-42
2023/07/09 10:29:03;;;;;;;;;;;30.80;97.30;;;;;;5130014;27;20003;-42
2023/07/09 10:31:35;;;;;;;;;;;30.90;95.30;;;;;;5134160;27;19918;-42
2023/07/09 10:34:27;;;;;;;;;;;31.00;96.70;;;;;;5133739;27;19907;-43
2023/07/09 10:36:58;;;;;;;;;;;31.00;96.50;;;;;;5098514;27;20441;-42
2023/07/09 10:39:28;;;;;;;;;;;31.10;96.80;;;;;;5137167;27;19995;-42
2023/07/09 10:41:56;;;;;;;;;;;31.10;97.20;;;;;;5125752;27;20018;-43
2023/07/09 10:44:33;;;;;;;;;;;31.20;96.00;;;;;;5128699;27;20025;-42
2023/07/09 10:47:00;;;;;;;;;;;31.20;96.30;;;;;;5132246;27;19912;-42
2023/07/09 10:49:42;;;;;;;;;;;31.20;96.60;;;;;;5133799;27;19912;-42
2023/07/09 10:52:20;;;;;;;;;;;31.30;95.80;;;;;;5125177;27;19919;-42
2023/07/09 10:54:45;;;;;;;;;;;31.40;96.90;;;;;;5127403;27;19956;-42
2023/07/09 10:57:30;;;;;;;;;;;31.40;94.10;;;;;;5138745;27;20323;-43
2023/07/09 10:59:56;;;;;;;;;;;31.50;95.60;;;;;;5124074;27;20263;-42
2023/07/09 11:02:32;;;;;;;;;;;31.60;95.70;;;;;;5143406;27;19934;-43
2023/07/09 11:05:00;;;;;;;;;;;31.60;95.40;;;;;;5126955;27;19939;-42
2023/07/09 11:07:32;;;;;;;;;;;31.60;93.10;;;;;;5128603;27;19915;-42
2023/07/09 11:09:58;;;;;;;;;;;31.70;93.20;;;;;;5133333;27;19911;-42
2023/07/09 11:12:35;;;;;;;;;;;31.80;93.30;;;;;;5133770;27;19960;-43
2023/07/09 11:15:11;;;;;;;;;;;31.80;92.60;;;;;;5132886;27;19950;-42
2023/07/09 11:17:39;;;;;;;;;;;31.80;91.80;;;;;;5132964;27;20400;-42
2023/07/09 11:20:15;;;;;;;;;;;31.90;90.50;;;;;;5133315;27;19956;-45
2023/07/09 11:22:41;;;;;;;;;;;31.90;92.10;;;;;;5119229;27;19966;-43
2023/07/09 11:25:11;;;;;;;;;;;31.90;90.90;;;;;;5115831;27;19992;-42
2023/07/09 11:27:51;;;;;;;;;;;31.90;92.00;;;;;;5111615;28;19965;-42
2023/07/09 11:30:21;;;;;;;;;;;32.00;91.30;;;;;;5130312;27;19915;-43
2023/07/09 11:32:51;;;;;;;;;;;32.00;91.60;;;;;;5142798;27;20029;-42
2023/07/09 11:35:20;;;;;;;;;;;32.10;90.70;;;;;;5135713;27;19916;-42
2023/07/09 11:37:46;;;;;;;;;;;32.10;90.10;;;;;;5132265;27;19926;-43
2023/07/09 11:40:13;;;;;;;;;;;32.20;87.60;;;;;;5132683;27;19923;-42
2023/07/09 11:42:52;;;;;;;;;;;32.20;91.00;;;;;;5128505;27;20366;-42
2023/07/09 11:45:25;;;;;;;;;;;32.20;90.40;;;;;;5130100;27;20233;-42
2023/07/09 11:47:59;;;;;;;;;;;32.30;90.70;;;;;;5129831;27;19984;-42
2023/07/09 11:50:29;;;;;;;;;;;32.30;89.30;;;;;;5133912;27;19911;-43
2023/07/09 11:52:55;;;;;;;;;;;32.40;88.80;;;;;;5130115;27;19936;-42
2023/07/09 11:55:28;;;;;;;;;;;32.40;89.60;;;;;;5131745;27;19981;-42
2023/07/09 11:57:54;;;;;;;;;;;32.40;86.70;;;;;;5129411;27;19912;-42
2023/07/09 12:00:20;;;;;;;;;;;32.40;89.80;;;;;;5125599;27;19916;-43
2023/07/09 12:02:45;;;;;;;;;;;32.50;87.90;;;;;;5124378;27;19938;-43
2023/07/09 12:05:11;;;;;;;;;;;32.60;85.60;;;;;;5128629;28;19922;-42
2023/07/09 12:07:37;;;;;;;;;;;32.70;85.20;;;;;;5124142;28;19908;-42
2023/07/09 12:10:09;;;;;;;;;;;32.70;83.00;;;;;;5118267;28;19942;-42
2023/07/09 12:12:34;;;;;;;;;;;32.70;86.60;;;;;;5119772;27;19976;-42
2023/07/09 12:15:04;;;;;;;;;;;32.80;83.80;;;;;;5129126;28;19915;-42
2023/07/09 12:17:32;;;;;;;;;;;32.90;82.10;;;;;;5132209;28;20010;-43
2023/07/09 12:19:58;;;;;;;;;;;32.90;80.10;;;;;;5131792;28;20370;-42
2023/07/09 12:22:23;;;;;;;;;;;32.90;79.70;;;;;;5132526;28;19926;-42
2023/07/09 12:24:50;;;;;;;;;;;33.00;81.60;;;;;;5132261;27;20270;-42
2023/07/09 12:27:20;;;;;;;;;;;33.00;77.60;;;;;;5135128;27;19911;-42
2023/07/09 12:29:46;;;;;;;;;;;33.10;79.30;;;;;;5134224;27;20374;-42
2023/07/09 12:32:13;;;;;;;;;;;33.20;76.90;;;;;;5116089;27;19949;-42
2023/07/09 12:34:38;;;;;;;;;;;33.30;81.30;;;;;;5128549;27;19912;-42
2023/07/09 12:37:04;;;;;;;;;;;33.50;77.90;;;;;;5137246;27;20017;-42
2023/07/09 12:39:31;;;;;;;;;;;33.60;79.60;;;;;;5135762;27;20022;-42
2023/07/09 12:41:59;;;;;;;;;;;33.80;79.60;;;;;;5135490;27;19924;-43
2023/07/09 12:44:25;;;;;;;;;;;33.90;78.40;;;;;;5136365;27;19915;-42
2023/07/09 12:46:52;;;;;;;;;;;34.00;77.50;;;;;;5136169;27;19908;-41
2023/07/09 12:49:22;;;;;;;;;;;34.20;75.60;;;;;;5133334;27;20002;-42
2023/07/09 12:51:48;;;;;;;;;;;34.40;77.50;;;;;;5125978;27;19911;-42
2023/07/09 12:54:15;;;;;;;;;;;34.60;77.40;;;;;;5124118;27;20029;-42
2023/07/09 12:56:40;;;;;;;;;;;34.90;76.30;;;;;;5135961;27;20418;-43
2023/07/09 12:59:17;;;;;;;;;;;35.20;75.80;;;;;;5136749;27;20428;-43
2023/07/09 13:01:47;;;;;;;;;;;35.60;74.90;;;;;;5122372;27;20431;-42
2023/07/09 13:04:13;;;;;;;;;;;35.70;73.80;;;;;;5122561;27;20712;-42
2023/07/09 13:06:38;;;;;;;;;;;35.70;69.00;;;;;;5121905;27;19956;-42
2023/07/09 13:09:10;;;;;;;;;;;35.50;69.10;;;;;;5116518;28;19908;-43
2023/07/09 13:11:37;;;;;;;;;;;35.30;70.30;;;;;;5138870;27;19922;-42
2023/07/09 13:14:04;;;;;;;;;;;35.00;73.30;;;;;;5158273;27;19911;-42
2023/07/09 13:16:30;;;;;;;;;;;34.70;73.10;;;;;;5157831;27;19960;-42
2023/07/09 13:18:55;;;;;;;;;;;34.30;73.70;;;;;;5158290;27;19987;-42
2023/07/09 13:21:21;;;;;;;;;;;34.00;73.80;;;;;;5158146;27;19914;-42
2023/07/09 13:23:49;;;;;;;;;;;33.70;75.80;;;;;;5157627;27;19907;-41
2023/07/09 13:26:15;;;;;;;;;;;33.50;77.20;;;;;;5155710;27;20274;-42
2023/07/09 13:28:42;;;;;;;;;;;33.20;75.70;;;;;;5158213;27;19959;-42
2023/07/09 13:31:12;;;;;;;;;;;33.00;79.30;;;;;;5148138;27;19911;-43
2023/07/09 13:33:38;;;;;;;;;;;32.80;80.00;;;;;;5137219;27;19929;-42
2023/07/09 13:36:04;;;;;;;;;;;32.60;80.60;;;;;;5136684;27;20345;-42
2023/07/09 13:38:30;;;;;;;;;;;32.40;81.60;;;;;;5135724;27;19912;-41
2023/07/09 13:40:56;;;;;;;;;;;32.20;78.70;;;;;;5136947;27;20253;-42
2023/07/09 13:43:32;;;;;;;;;;;32.10;81.40;;;;;;5136484;27;19951;-42
2023/07/09 13:45:59;;;;;;;;;;;31.90;82.70;;;;;;5136934;27;19960;-42
2023/07/09 13:48:25;;;;;;;;;;;31.70;85.40;;;;;;5136886;27;19951;-42
2023/07/09 13:50:52;;;;;;;;;;;31.60;85.10;;;;;;5144507;27;19918;-41
2023/07/09 13:53:19;;;;;;;;;;;31.50;85.00;;;;;;5157836;27;19946;-41
2023/07/09 13:55:45;;;;;;;;;;;31.40;88.50;;;;;;5137331;27;19912;-42
2023/07/09 13:58:11;;;;;;;;;;;31.30;90.30;;;;;;5132727;27;19915;-41
2023/07/09 14:00:38;;;;;;;;;;;31.20;91.30;;;;;;5129518;27;19916;-42
2023/07/09 14:03:07;;;;;;;;;;;31.10;90.90;;;;;;5136901;27;19923;-42
2023/07/09 14:05:33;;;;;;;;;;;31.10;92.20;;;;;;5132851;27;19915;-42
2023/07/09 14:07:58;;;;;;;;;;;31.00;92.70;;;;;;5139679;27;20372;-41
2023/07/09 14:10:24;;;;;;;;;;;30.90;93.10;;;;;;5140689;27;19918;-42
2023/07/09 14:12:50;;;;;;;;;;;30.90;93.80;;;;;;5141449;27;20002;-42
2023/07/09 14:15:19;;;;;;;;;;;30.90;94.80;;;;;;5141602;27;19911;-42
2023/07/09 14:17:45;;;;;;;;;;;30.80;95.30;;;;;;5136206;27;19915;-42